Redwood City, CA (94064)

11:16 PM PDT on March 23, 2017 (GMT -0700)
Sterling Heights | | Change Station

Elev 134 ft 37.46 °N, 122.25 °W | Updated 11 seconds ago

Overcast
Overcast
51.1 °F
Feels Like 51.1 °F
N
1.1
Wind Variable Wind from South
Gusts 2.0 mph

Today
High -- | Low -- °F
--% Chance of Precip.
Yesterday
High -- | Low -- °F
Precip. -- in
Pressure 30.23 in
Visibility 10.0 miles
Clouds Scattered Clouds 7500 ft
Overcast 11000 ft
Dew Point 45.1 °F
Humidity 80%
Rainfall 0.00 in
Snow Depth Not available.
7:07 AM 7:23 PM
Waning Crescent, 17% visible
METAR KSQL 240555Z AUTO 16004KT 10SM SCT075 OVC110 12/07 A3023 RMK AO2
Pressure 30.23 in
Visibility 10.0 miles
Clouds Scattered Clouds 7500 ft
Overcast 11000 ft
Dew Point 45.1 °F
Humidity 80%
Rainfall 0.00 in
Snow Depth Not available.
7:07 AM 7:23 PM
Waning Crescent, 17% visible
METAR KSQL 240555Z AUTO 16004KT 10SM SCT075 OVC110 12/07 A3023 RMK AO2

Get Severe Weather Alerts

Thanks for signing up!

Be on the lookout for a verification email in your inbox.

You'll start receiving the daily forecast at 8 AM.

×

10-Day Weather Forecast

Almanac

Astronomy

Mar. 23, 2017 Rise Set
Actual Time
Civil Twilight
Nautical Twilight
Astronomical Twilight
Moon
Length of Visible Light
Length of Day
Tomorrow will be .
, % of the Moon is Illuminated

Today's Extremes

State Highs State Lows

Community

WunderPhotos

Upload Photos

1,962,540 photos uploaded!

WunderBlog® & News

Nearby

Air Quality

  Air Quality AQ Index Pollutant
Not available.

Snow Depth

Station Depth Elevation

Earthquake Activity

City Distance Mag. Time & Date
Minimum magnitude displayed is 2.5.

Earthquake Activity

City Distance Mag. Time & Date
Minimum magnitude displayed is 2.5.

Coastal Water Temperatures

Place Temperature

Stations

Nearby Weather Stations

Station Location Temp. Windchill Dew Point Humidity Wind Precip. Elev Updated Type
                   

Watches & Warnings

There are currently no watches in effect.